createdAt,value
2023-04-28T00:02:25.794Z,56.85
2023-04-28T00:04:54.627Z,56.04
2023-04-28T00:07:23.495Z,56.26
2023-04-28T00:09:50.959Z,56.05
2023-04-28T00:12:18.416Z,56.38
2023-04-28T00:14:45.885Z,57.23
2023-04-28T00:17:13.302Z,56.61
2023-04-28T00:19:40.746Z,56.43
2023-04-28T00:22:08.746Z,57.58
2023-04-28T00:24:37.491Z,57.13
2023-04-28T00:27:04.897Z,56.83
2023-04-28T00:29:32.309Z,56.27
2023-04-28T00:31:59.735Z,57.06
2023-04-28T00:34:27.151Z,57.94
2023-04-28T00:36:54.557Z,57.79
2023-04-28T00:39:22.995Z,57.15
2023-04-28T00:41:51.718Z,57.80
2023-04-28T00:44:19.161Z,56.95
2023-04-28T00:46:47.792Z,57.25
2023-04-28T00:49:16.589Z,57.79
2023-04-28T00:51:44.132Z,58.50
2023-04-28T00:54:14.824Z,58.58
2023-04-28T00:56:43.028Z,57.39
2023-04-28T00:59:11.787Z,57.96
2023-04-28T01:01:39.414Z,58.10
2023-04-28T01:04:07.082Z,58.34
2023-04-28T01:06:35.288Z,58.06
2023-04-28T01:09:02.682Z,58.75
2023-04-28T01:11:30.082Z,58.68
2023-04-28T01:13:59.422Z,57.75
2023-04-28T01:16:28.313Z,57.20
2023-04-28T01:18:56.116Z,57.70
2023-04-28T01:21:29.043Z,56.82
2023-04-28T01:23:57.899Z,56.85
2023-04-28T01:26:25.526Z,57.04
2023-04-28T01:28:52.986Z,57.49
2023-04-28T01:31:21.187Z,58.29
2023-04-28T01:33:48.623Z,58.57
2023-04-28T01:36:16.087Z,57.37
2023-04-28T01:38:43.523Z,57.05
2023-04-28T01:41:12.297Z,57.12
2023-04-28T01:43:39.669Z,57.54
2023-04-28T01:46:07.159Z,58.24
2023-04-28T01:48:34.681Z,58.28
2023-04-28T01:51:02.266Z,59.55
2023-04-28T01:53:29.653Z,57.92
2023-04-28T01:55:58.535Z,58.75
2023-04-28T01:58:27.346Z,58.81
2023-04-28T02:00:54.772Z,58.88
2023-04-28T02:03:22.485Z,58.79
2023-04-28T02:05:50.116Z,58.92
2023-04-28T02:08:17.576Z,58.27
2023-04-28T02:10:45.069Z,58.95
2023-04-28T02:13:12.823Z,58.28
2023-04-28T02:15:42.443Z,58.68
2023-04-28T02:18:09.994Z,58.65
2023-04-28T02:20:37.431Z,57.99
2023-04-28T02:23:04.888Z,58.06
2023-04-28T02:25:32.282Z,58.15
2023-04-28T02:28:00.160Z,58.32
2023-04-28T02:30:27.555Z,57.23
2023-04-28T02:32:56.290Z,57.03
2023-04-28T02:35:23.733Z,57.12
2023-04-28T02:37:51.222Z,58.32
2023-04-28T02:40:19.282Z,59.09
2023-04-28T02:42:46.685Z,58.33
2023-04-28T02:45:14.128Z,58.58
2023-04-28T02:47:41.644Z,58.95
2023-04-28T02:50:11.534Z,58.84
2023-04-28T02:52:38.952Z,59.21
2023-04-28T02:55:07.382Z,59.12
2023-04-28T02:57:34.816Z,58.55
2023-04-28T03:00:02.245Z,58.75
2023-04-28T03:02:29.708Z,59.31
2023-04-28T03:04:57.236Z,59.75
2023-04-28T03:07:26.112Z,59.73
2023-04-28T03:09:53.485Z,59.02
2023-04-28T03:12:20.915Z,59.95
2023-04-28T03:14:48.291Z,59.59
2023-04-28T03:17:15.733Z,59.13
2023-04-28T03:19:43.128Z,60.24
2023-04-28T03:22:10.529Z,58.93
2023-04-28T03:24:39.221Z,59.02
2023-04-28T03:27:06.843Z,59.09
2023-04-28T03:29:34.234Z,60.33
2023-04-28T03:32:02.205Z,60.64
2023-04-28T03:34:29.652Z,61.46
2023-04-28T03:36:57.050Z,59.21
2023-04-28T03:39:24.485Z,60.23
2023-04-28T03:41:53.190Z,59.32
2023-04-28T03:44:20.928Z,58.76
2023-04-28T03:46:48.733Z,59.16
2023-04-28T03:49:16.279Z,58.74
2023-04-28T03:51:43.743Z,57.75
2023-04-28T03:54:11.144Z,57.67
2023-04-28T03:56:38.648Z,57.85
2023-04-28T03:59:07.424Z,57.85
2023-04-28T04:01:34.795Z,57.86
2023-04-28T04:04:02.531Z,57.92
2023-04-28T04:06:30.794Z,57.65
2023-04-28T04:08:58.378Z,57.77
2023-04-28T04:11:26.001Z,57.45
2023-04-28T04:13:53.409Z,57.24
2023-04-28T04:16:22.697Z,57.03
2023-04-28T04:18:50.310Z,57.14
2023-04-28T04:21:17.699Z,56.32
2023-04-28T04:23:45.106Z,55.49
2023-04-28T04:26:12.502Z,55.83
2023-04-28T04:28:39.937Z,54.57
2023-04-28T04:33:37.915Z,54.53
2023-04-28T04:36:06.347Z,55.61
2023-04-28T04:38:33.752Z,56.13
2023-04-28T04:41:01.337Z,56.16
2023-04-28T04:43:28.775Z,55.14
2023-04-28T04:45:56.296Z,54.35
2023-04-28T04:48:23.732Z,55.01
2023-04-28T04:50:52.459Z,56.26
2023-04-28T04:53:20.128Z,56.75
2023-04-28T04:55:47.569Z,56.94
2023-04-28T04:58:15.084Z,57.40
2023-04-28T05:00:42.477Z,54.47
2023-04-28T05:03:10.007Z,53.88
2023-04-28T05:05:37.504Z,54.09
2023-04-28T05:08:06.346Z,52.86
2023-04-28T05:10:33.967Z,52.14
2023-04-28T05:13:01.407Z,52.99
2023-04-28T05:15:28.903Z,51.01
2023-04-28T05:17:59.763Z,53.40
2023-04-28T05:20:27.280Z,52.55
2023-04-28T05:22:54.730Z,52.87
2023-04-28T05:25:23.478Z,53.17
2023-04-28T05:27:50.929Z,53.38
2023-04-28T05:30:18.406Z,53.63
2023-04-28T05:32:45.854Z,49.93
2023-04-28T05:35:13.671Z,47.97
2023-04-28T05:37:43.541Z,43.83
2023-04-28T05:40:11.724Z,38.36
2023-04-28T05:42:40.651Z,37.72
2023-04-28T05:45:09.357Z,38.20
2023-04-28T05:47:36.940Z,37.72
2023-04-28T05:50:04.666Z,38.54
2023-04-28T05:52:32.122Z,41.09
2023-04-28T05:54:59.532Z,39.40
2023-04-28T05:57:27.350Z,41.56
2023-04-28T05:59:56.099Z,42.88
2023-04-28T06:02:24.551Z,43.21
2023-04-28T06:04:53.316Z,41.80
2023-04-28T06:07:21.454Z,43.16
2023-04-28T06:09:48.947Z,44.37
2023-04-28T06:12:16.339Z,46.41
2023-04-28T06:14:43.705Z,45.34
2023-04-28T06:17:12.465Z,50.87
2023-04-28T06:19:39.902Z,48.15
2023-04-28T06:22:07.304Z,45.29
2023-04-28T06:24:34.731Z,45.12
2023-04-28T06:27:02.718Z,44.62
2023-04-28T06:29:30.115Z,48.80
2023-04-28T06:31:58.223Z,47.79
2023-04-28T06:34:28.889Z,48.37
2023-04-28T06:36:56.664Z,46.56
2023-04-28T06:39:24.061Z,49.09
2023-04-28T06:41:51.472Z,49.44
2023-04-28T06:44:19.121Z,49.24
2023-04-28T06:46:46.848Z,49.13
2023-04-28T06:49:14.469Z,48.66
2023-04-28T06:51:43.272Z,48.88
2023-04-28T06:54:11.594Z,48.65
2023-04-28T06:56:39.060Z,49.36
2023-04-28T06:59:06.488Z,48.88
2023-04-28T07:01:33.878Z,49.11
2023-04-28T07:04:01.362Z,50.31
2023-04-28T07:06:29.762Z,50.05
2023-04-28T07:08:58.584Z,48.98
2023-04-28T07:11:26.237Z,50.18
2023-04-28T07:13:53.610Z,49.77
2023-04-28T07:16:21.461Z,49.10
2023-04-28T07:18:48.954Z,48.67
2023-04-28T07:21:16.388Z,48.50
2023-04-28T07:23:43.864Z,48.01
2023-04-28T07:26:16.225Z,48.04
2023-04-28T07:28:45.881Z,47.25
2023-04-28T07:31:13.301Z,47.46
2023-04-28T07:33:40.713Z,46.51
2023-04-28T07:36:08.636Z,47.89
2023-04-28T07:38:36.497Z,47.77
2023-04-28T07:41:05.700Z,48.65
2023-04-28T07:43:36.258Z,47.94
2023-04-28T07:46:03.814Z,46.40
2023-04-28T07:48:32.421Z,46.16
2023-04-28T07:50:59.872Z,46.25
2023-04-28T07:53:27.937Z,54.44
2023-04-28T07:55:55.504Z,60.09
2023-04-28T07:58:22.948Z,58.69
2023-04-28T08:00:51.751Z,46.69
2023-04-28T08:03:19.352Z,55.65
2023-04-28T08:05:47.229Z,50.28
2023-04-28T08:08:14.832Z,49.69
2023-04-28T08:10:43.906Z,47.30
2023-04-28T08:13:11.455Z,52.28
2023-04-28T08:15:38.934Z,48.09
2023-04-28T08:18:08.608Z,48.61
2023-04-28T08:20:36.176Z,48.99
2023-04-28T08:23:03.592Z,49.67
2023-04-28T08:25:31.049Z,45.59
2023-04-28T08:27:58.723Z,46.10
2023-04-28T08:30:26.218Z,51.07
2023-04-28T08:32:54.091Z,45.04
2023-04-28T08:35:22.963Z,46.14
2023-04-28T08:37:50.463Z,46.51
2023-04-28T08:40:17.954Z,48.71
2023-04-28T08:42:46.246Z,50.26
2023-04-28T08:45:15.130Z,46.18
2023-04-28T08:47:46.036Z,48.26
2023-04-28T08:50:15.290Z,46.71
2023-04-28T08:52:44.104Z,47.03
2023-04-28T08:55:13.596Z,45.57
2023-04-28T08:57:44.713Z,45.21
2023-04-28T09:00:13.358Z,45.30
2023-04-28T09:02:42.436Z,45.17
2023-04-28T09:05:11.756Z,45.83
2023-04-28T09:07:39.546Z,47.47
2023-04-28T09:10:19.474Z,45.58
2023-04-28T09:12:47.661Z,44.90
2023-04-28T09:15:27.678Z,44.83
2023-04-28T09:17:55.486Z,45.42
2023-04-28T09:20:24.280Z,44.30
2023-04-28T09:22:53.510Z,43.00
2023-04-28T09:25:23.586Z,44.47
2023-04-28T09:27:51.361Z,43.73
2023-04-28T09:30:20.141Z,44.70
2023-04-28T09:33:05.632Z,43.88
2023-04-28T09:35:43.464Z,44.30
2023-04-28T09:38:10.978Z,43.40
2023-04-28T09:40:55.644Z,43.89
2023-04-28T09:43:30.994Z,43.50
2023-04-28T09:46:00.718Z,43.95
2023-04-28T09:48:30.849Z,43.69
2023-04-28T09:50:59.341Z,42.08
2023-04-28T09:53:27.635Z,42.25
2023-04-28T09:55:58.157Z,41.96
2023-04-28T09:58:27.324Z,43.40
2023-04-28T10:00:56.597Z,41.59
2023-04-28T10:03:28.457Z,41.29
2023-04-28T10:05:58.228Z,41.98
2023-04-28T10:08:27.341Z,42.21
2023-04-28T10:10:56.917Z,42.78
2023-04-28T10:13:25.435Z,42.37
2023-04-28T10:15:55.231Z,42.96
2023-04-28T10:18:23.649Z,42.57
2023-04-28T10:20:56.556Z,41.31
2023-04-28T10:23:45.372Z,41.46
2023-04-28T10:26:16.411Z,42.89
2023-04-28T10:28:48.450Z,43.33
2023-04-28T10:31:17.559Z,42.34
2023-04-28T10:33:45.800Z,43.24
2023-04-28T10:36:49.087Z,42.27
2023-04-28T10:39:16.834Z,43.24
2023-04-28T10:41:46.508Z,44.40
2023-04-28T10:44:45.017Z,45.56
2023-04-28T10:47:12.576Z,43.03
2023-04-28T10:50:11.606Z,44.19
2023-04-28T10:52:51.785Z,43.68
2023-04-28T10:55:40.811Z,42.55
2023-04-28T10:58:36.165Z,42.01
2023-04-28T11:01:25.719Z,42.55
2023-04-28T11:04:00.303Z,43.28
2023-04-28T11:06:29.693Z,43.92
2023-04-28T11:09:00.373Z,42.17
2023-04-28T11:11:28.785Z,42.64
2023-04-28T11:14:33.845Z,40.87
2023-04-28T11:17:03.164Z,43.34
2023-04-28T11:19:33.128Z,42.50
2023-04-28T11:22:02.694Z,43.59
2023-04-28T11:24:31.584Z,41.76
2023-04-28T11:27:00.039Z,42.53
2023-04-28T11:29:36.245Z,42.73
2023-04-28T11:32:04.554Z,41.88
2023-04-28T11:34:32.650Z,41.11
2023-04-28T11:37:00.710Z,41.23
2023-04-28T11:39:30.077Z,41.05
2023-04-28T11:41:58.204Z,41.68
2023-04-28T11:44:27.457Z,41.49
2023-04-28T11:47:00.648Z,41.11
2023-04-28T11:49:30.162Z,42.18
2023-04-28T11:52:00.244Z,41.87
2023-04-28T11:54:29.239Z,40.68
2023-04-28T11:56:58.366Z,41.97
2023-04-28T11:59:27.399Z,40.87
2023-04-28T12:01:59.176Z,40.55
2023-04-28T12:04:32.936Z,40.19
2023-04-28T12:07:02.126Z,40.01
2023-04-28T12:09:30.075Z,40.17
2023-04-28T12:11:59.160Z,41.14
2023-04-28T12:14:26.923Z,40.80
2023-04-28T12:16:56.991Z,40.69
2023-04-28T12:19:24.442Z,40.15
2023-04-28T12:22:02.862Z,40.42
2023-04-28T12:24:30.852Z,41.08
2023-04-28T12:27:17.139Z,40.67
2023-04-28T12:29:46.580Z,41.07
2023-04-28T12:32:16.005Z,40.95
2023-04-28T12:34:43.957Z,41.07
2023-04-28T12:37:12.229Z,40.95
2023-04-28T12:39:42.376Z,40.79
2023-04-28T12:42:10.006Z,41.14
2023-04-28T12:44:38.404Z,41.37
2023-04-28T12:47:07.873Z,43.06
2023-04-28T12:49:36.848Z,41.07
2023-04-28T12:52:05.684Z,41.11
2023-04-28T12:54:33.253Z,41.45
2023-04-28T12:57:00.706Z,41.62
2023-04-28T12:59:28.855Z,40.97
2023-04-28T13:01:56.364Z,40.64
2023-04-28T13:04:24.577Z,41.66
2023-04-28T13:06:54.351Z,41.06
2023-04-28T13:09:21.854Z,41.69
2023-04-28T13:11:49.228Z,41.28
2023-04-28T13:14:16.821Z,43.46
2023-04-28T13:16:44.307Z,41.47
2023-04-28T13:19:14.609Z,41.24
2023-04-28T13:21:42.893Z,39.80
2023-04-28T13:24:11.791Z,42.12
2023-04-28T13:26:39.313Z,42.74
2023-04-28T13:29:08.272Z,41.44
2023-04-28T13:31:36.044Z,41.08
2023-04-28T13:34:05.203Z,43.52
2023-04-28T13:36:34.037Z,44.54
2023-04-28T13:39:02.650Z,43.45
2023-04-28T13:41:31.535Z,42.16
2023-04-28T13:43:58.921Z,42.22
2023-04-28T13:46:26.368Z,43.29
2023-04-28T13:48:53.761Z,43.32
2023-04-28T13:51:21.196Z,44.01
2023-04-28T13:53:48.549Z,43.17
2023-04-28T13:56:16.085Z,43.36
2023-04-28T13:58:44.832Z,45.84
2023-04-28T14:01:12.222Z,45.84
2023-04-28T14:03:40.579Z,44.73
2023-04-28T14:06:08.649Z,46.08
2023-04-28T14:08:36.657Z,47.50
2023-04-28T14:11:04.279Z,48.94
2023-04-28T14:13:31.822Z,47.41
2023-04-28T14:16:00.643Z,46.62
2023-04-28T14:18:28.113Z,47.48
2023-04-28T14:20:55.681Z,46.38
2023-04-28T14:23:23.595Z,46.56
2023-04-28T14:25:52.373Z,46.91
2023-04-28T14:28:21.673Z,46.96
2023-04-28T14:30:50.020Z,47.87
2023-04-28T14:33:18.829Z,48.13
2023-04-28T14:35:46.382Z,48.18
2023-04-28T14:38:14.173Z,47.45
2023-04-28T14:40:43.056Z,47.99
2023-04-28T14:43:10.561Z,48.42
2023-04-28T14:45:38.167Z,48.32
2023-04-28T14:48:06.788Z,48.69
2023-04-28T14:50:35.902Z,47.54
2023-04-28T14:53:06.817Z,47.96
2023-04-28T14:55:34.300Z,48.25
2023-04-28T14:58:01.748Z,47.45
2023-04-28T15:00:29.241Z,48.87
2023-04-28T15:02:56.696Z,49.05
2023-04-28T15:05:24.233Z,48.94
2023-04-28T15:07:52.978Z,49.37
2023-04-28T15:10:20.496Z,48.29
2023-04-28T15:12:49.247Z,47.35
2023-04-28T15:15:16.715Z,47.54
2023-04-28T15:17:45.478Z,48.72
2023-04-28T15:20:12.995Z,48.88
2023-04-28T15:22:40.974Z,48.77
2023-04-28T15:25:10.182Z,48.27
2023-04-28T15:27:37.610Z,49.05
2023-04-28T15:30:05.887Z,48.76
2023-04-28T15:32:33.295Z,50.58
2023-04-28T15:35:01.589Z,50.41
2023-04-28T15:37:41.451Z,51.84
2023-04-28T15:40:12.342Z,51.49
2023-04-28T15:42:42.205Z,49.91
2023-04-28T15:45:11.850Z,50.37
2023-04-28T15:47:40.475Z,50.36
2023-04-28T15:50:10.509Z,50.97
2023-04-28T15:52:40.614Z,50.75
2023-04-28T15:55:10.734Z,51.59
2023-04-28T15:57:38.186Z,52.79
2023-04-28T16:00:07.235Z,54.05
2023-04-28T16:02:34.801Z,54.99
2023-04-28T16:05:04.548Z,56.71
2023-04-28T16:07:37.979Z,55.96
2023-04-28T16:10:08.534Z,54.72
2023-04-28T16:12:38.618Z,54.91
2023-04-28T16:15:07.075Z,55.79
2023-04-28T16:17:35.875Z,55.61
2023-04-28T16:20:04.663Z,56.27
2023-04-28T16:22:32.511Z,57.91
2023-04-28T16:25:03.679Z,59.30
2023-04-28T16:27:31.760Z,56.86
2023-04-28T16:30:00.971Z,56.82
2023-04-28T16:32:28.835Z,55.78
2023-04-28T16:34:58.176Z,56.61
2023-04-28T16:37:25.937Z,56.66
2023-04-28T16:39:54.046Z,56.67
2023-04-28T16:42:22.364Z,57.12
2023-04-28T16:44:52.535Z,61.50
2023-04-28T16:47:21.841Z,62.31
2023-04-28T16:49:49.428Z,63.75
2023-04-28T16:52:17.058Z,59.19
2023-04-28T16:54:44.598Z,57.16
2023-04-28T16:57:12.019Z,59.08
2023-04-28T16:59:39.432Z,58.16
2023-04-28T17:02:07.073Z,59.82
2023-04-28T17:04:36.871Z,58.58
2023-04-28T17:07:05.322Z,58.22
2023-04-28T17:09:33.375Z,57.76
2023-04-28T17:12:03.547Z,58.65
2023-04-28T17:14:31.103Z,58.77
2023-04-28T17:16:58.484Z,59.01
2023-04-28T17:19:25.997Z,61.45
2023-04-28T17:21:55.633Z,60.26
2023-04-28T17:24:23.099Z,60.49
2023-04-28T17:26:51.042Z,62.92
2023-04-28T17:29:19.001Z,64.34
2023-04-28T17:31:46.487Z,63.91
2023-04-28T17:34:13.922Z,69.07
2023-04-28T17:36:42.078Z,65.66
2023-04-28T17:39:10.796Z,66.73
2023-04-28T17:41:38.197Z,67.74
2023-04-28T17:44:05.742Z,69.06
2023-04-28T17:46:33.430Z,69.01
2023-04-28T17:49:00.906Z,70.39
2023-04-28T17:51:28.633Z,72.75
2023-04-28T17:53:56.772Z,72.53
2023-04-28T17:56:25.647Z,71.56
2023-04-28T17:58:53.082Z,72.74
2023-04-28T18:01:20.554Z,71.07
2023-04-28T18:03:48.241Z,71.61
2023-04-28T18:06:16.312Z,72.42
2023-04-28T18:08:43.667Z,72.49
2023-04-28T18:11:12.210Z,72.24
2023-04-28T18:13:40.924Z,72.20
2023-04-28T18:16:10.697Z,71.81
2023-04-28T18:18:38.112Z,72.07
2023-04-28T18:21:05.638Z,73.20
2023-04-28T18:23:33.808Z,74.49
2023-04-28T18:26:01.215Z,73.64
2023-04-28T18:28:28.628Z,76.29
2023-04-28T18:30:56.480Z,74.50
2023-04-28T18:33:28.474Z,77.21
2023-04-28T18:36:00.361Z,75.52
2023-04-28T18:38:27.785Z,75.62
2023-04-28T18:40:55.239Z,76.48
2023-04-28T18:43:23.580Z,78.05
2023-04-28T18:45:51.128Z,76.42
2023-04-28T18:48:20.209Z,76.49
2023-04-28T18:50:48.599Z,75.94
2023-04-28T18:53:16.296Z,76.17
2023-04-28T18:55:43.715Z,74.76
2023-04-28T18:58:11.712Z,76.26
2023-04-28T19:00:39.168Z,75.59
2023-04-28T19:03:06.801Z,76.80
2023-04-28T19:05:35.655Z,74.18
2023-04-28T19:08:03.906Z,75.53
2023-04-28T19:10:33.144Z,76.19
2023-04-28T19:13:00.569Z,74.31
2023-04-28T19:15:28.011Z,75.95
2023-04-28T19:17:56.587Z,74.88
2023-04-28T19:20:24.020Z,76.48
2023-04-28T19:22:52.838Z,75.67
2023-04-28T19:25:20.300Z,74.17
2023-04-28T19:27:47.816Z,73.73
2023-04-28T19:30:16.744Z,73.08
2023-04-28T19:32:44.289Z,74.35
2023-04-28T19:35:11.733Z,74.65
2023-04-28T19:37:39.376Z,74.87
2023-04-28T19:40:09.733Z,75.95
2023-04-28T19:42:37.167Z,77.04
2023-04-28T19:45:05.221Z,74.22
2023-04-28T19:47:34.086Z,74.34
2023-04-28T19:50:02.336Z,72.65
2023-04-28T19:52:31.999Z,75.23
2023-04-28T19:55:00.665Z,74.58
2023-04-28T19:57:29.462Z,74.54
2023-04-28T19:59:57.410Z,72.12
2023-04-28T20:02:24.961Z,72.16
2023-04-28T20:04:52.414Z,74.37
2023-04-28T20:07:19.971Z,72.90
2023-04-28T20:09:47.534Z,73.73
2023-04-28T20:12:15.288Z,72.30
2023-04-28T20:14:47.073Z,72.36
2023-04-28T20:17:14.518Z,71.50
2023-04-28T20:19:45.190Z,73.61
2023-04-28T20:22:19.867Z,72.03
2023-04-28T20:24:47.360Z,70.67
2023-04-28T20:27:15.199Z,72.06
2023-04-28T20:29:44.089Z,71.01
2023-04-28T20:32:11.602Z,72.15
2023-04-28T20:34:39.414Z,72.04
2023-04-28T20:37:08.123Z,71.66
2023-04-28T20:39:35.557Z,71.26
2023-04-28T20:42:03.544Z,71.09
2023-04-28T20:44:31.004Z,72.59
2023-04-28T20:47:01.445Z,73.84
2023-04-28T20:49:29.267Z,72.60
2023-04-28T20:52:03.083Z,73.70
2023-04-28T20:54:32.629Z,76.39
2023-04-28T20:57:00.314Z,73.57
2023-04-28T20:59:29.022Z,72.13
2023-04-28T21:01:58.150Z,71.78
2023-04-28T21:04:28.066Z,71.60
2023-04-28T21:06:55.971Z,71.68
2023-04-28T21:09:24.910Z,72.00
2023-04-28T21:11:52.527Z,73.88
2023-04-28T21:14:20.068Z,74.85
2023-04-28T21:16:47.497Z,75.31
2023-04-28T21:19:14.907Z,76.88
2023-04-28T21:21:43.631Z,74.69
2023-04-28T21:24:11.107Z,71.75
2023-04-28T21:26:38.583Z,72.92
2023-04-28T21:29:06.264Z,72.49
2023-04-28T21:31:33.734Z,70.43
2023-04-28T21:34:01.204Z,70.96
2023-04-28T21:36:28.599Z,70.28
2023-04-28T21:38:57.618Z,69.88
2023-04-28T21:41:25.984Z,71.04
2023-04-28T21:43:53.501Z,70.39
2023-04-28T21:46:21.052Z,70.29
2023-04-28T21:48:49.038Z,68.76
2023-04-28T21:51:16.777Z,71.01
2023-04-28T21:53:44.200Z,70.87
2023-04-28T21:56:12.950Z,72.58
2023-04-28T21:58:40.548Z,71.04
2023-04-28T22:01:08.258Z,71.90
2023-04-28T22:03:36.212Z,70.89
2023-04-28T22:06:04.269Z,71.54
2023-04-28T22:08:31.750Z,71.99
2023-04-28T22:10:59.280Z,75.02
2023-04-28T22:13:28.092Z,73.17
2023-04-28T22:15:56.168Z,74.62
2023-04-28T22:18:23.743Z,73.57
2023-04-28T22:20:51.357Z,72.96
2023-04-28T22:23:18.823Z,72.91
2023-04-28T22:25:46.420Z,71.87
2023-04-28T22:28:14.299Z,73.38
2023-04-28T22:30:43.067Z,73.46
2023-04-28T22:33:10.984Z,72.44
2023-04-28T22:35:38.385Z,72.42
2023-04-28T22:38:05.745Z,73.95
2023-04-28T22:40:33.582Z,72.07
2023-04-28T22:43:00.942Z,71.62
2023-04-28T22:45:28.748Z,74.01
2023-04-28T22:47:57.625Z,74.29
2023-04-28T22:50:25.129Z,74.02
2023-04-28T22:52:52.551Z,72.62
2023-04-28T22:55:20.082Z,75.78
2023-04-28T22:57:47.627Z,75.80
2023-04-28T23:00:16.617Z,74.16
2023-04-28T23:02:44.939Z,72.83
2023-04-28T23:05:13.919Z,74.88
2023-04-28T23:07:42.018Z,72.97
2023-04-28T23:10:11.170Z,76.13
2023-04-28T23:12:39.453Z,74.27
2023-04-28T23:15:07.968Z,74.57
2023-04-28T23:17:35.436Z,73.34
2023-04-28T23:20:02.985Z,73.53
2023-04-28T23:22:31.749Z,73.90
2023-04-28T23:24:59.224Z,74.92
2023-04-28T23:27:26.729Z,74.86
2023-04-28T23:29:54.429Z,74.77
2023-04-28T23:32:22.006Z,72.58
2023-04-28T23:34:49.532Z,74.69
2023-04-28T23:37:16.916Z,74.03
2023-04-28T23:39:45.688Z,73.10
2023-04-28T23:42:13.053Z,73.18
2023-04-28T23:44:40.395Z,73.62
2023-04-28T23:47:07.777Z,71.77
2023-04-28T23:49:35.177Z,75.41
2023-04-28T23:52:02.773Z,73.19
2023-04-28T23:54:30.733Z,73.22
2023-04-28T23:56:59.436Z,72.46
2023-04-28T23:59:27.413Z,71.90
